sensor_id;sensor_type;location;lat;lon;timestamp;temperature;humidity
15357;DHT22;7778;48.792;9.260;2023-02-15T00:02:12;0.80;99.90
15357;DHT22;7778;48.792;9.260;2023-02-15T00:04:59;0.80;99.90
15357;DHT22;7778;48.792;9.260;2023-02-15T00:07:44;0.80;99.90
15357;DHT22;7778;48.792;9.260;2023-02-15T00:10:30;0.80;99.90
15357;DHT22;7778;48.792;9.260;2023-02-15T00:13:16;0.70;99.90
15357;DHT22;7778;48.792;9.260;2023-02-15T00:16:02;0.70;99.90
15357;DHT22;7778;48.792;9.260;2023-02-15T00:18:52;0.70;99.90
15357;DHT22;7778;48.792;9.260;2023-02-15T00:21:39;0.60;99.90
15357;DHT22;7778;48.792;9.260;2023-02-15T00:24:26;0.60;99.90
15357;DHT22;7778;48.792;9.260;2023-02-15T00:27:12;0.70;99.90
15357;DHT22;7778;48.792;9.260;2023-02-15T00:29:57;0.50;99.90
15357;DHT22;7778;48.792;9.260;2023-02-15T00:32:43;0.50;99.90
15357;DHT22;7778;48.792;9.260;2023-02-15T00:35:29;0.50;99.90
15357;DHT22;7778;48.792;9.260;2023-02-15T00:38:16;0.40;99.90
15357;DHT22;7778;48.792;9.260;2023-02-15T00:41:03;0.60;99.90
15357;DHT22;7778;48.792;9.260;2023-02-15T00:43:50;0.40;99.90
15357;DHT22;7778;48.792;9.260;2023-02-15T00:46:36;0.40;99.90
15357;DHT22;7778;48.792;9.260;2023-02-15T00:49:21;0.30;99.90
15357;DHT22;7778;48.792;9.260;2023-02-15T00:52:07;0.30;99.90
15357;DHT22;7778;48.792;9.260;2023-02-15T00:54:54;0.20;99.90
15357;DHT22;7778;48.792;9.260;2023-02-15T00:57:39;0.30;99.90
15357;DHT22;7778;48.792;9.260;2023-02-15T01:00:25;0.30;99.90
15357;DHT22;7778;48.792;9.260;2023-02-15T01:03:11;0.30;99.90
15357;DHT22;7778;48.792;9.260;2023-02-15T01:05:57;0.20;99.90
15357;DHT22;7778;48.792;9.260;2023-02-15T01:08:43;0.20;99.90
15357;DHT22;7778;48.792;9.260;2023-02-15T01:11:30;0.20;99.90
15357;DHT22;7778;48.792;9.260;2023-02-15T01:14:16;0.20;99.90
15357;DHT22;7778;48.792;9.260;2023-02-15T01:17:01;0.20;99.90
15357;DHT22;7778;48.792;9.260;2023-02-15T01:19:47;0.20;99.90
15357;DHT22;7778;48.792;9.260;2023-02-15T01:22:32;0.20;99.90
15357;DHT22;7778;48.792;9.260;2023-02-15T01:25:19;0.40;99.90
15357;DHT22;7778;48.792;9.260;2023-02-15T01:28:07;0.30;99.90
15357;DHT22;7778;48.792;9.260;2023-02-15T01:30:53;0.20;99.90
15357;DHT22;7778;48.792;9.260;2023-02-15T01:33:40;0.10;99.90
15357;DHT22;7778;48.792;9.260;2023-02-15T01:36:26;0.10;99.90
15357;DHT22;7778;48.792;9.260;2023-02-15T01:39:12;0.10;99.90
15357;DHT22;7778;48.792;9.260;2023-02-15T01:41:58;0.00;99.90
15357;DHT22;7778;48.792;9.260;2023-02-15T01:44:50;0.00;99.90
15357;DHT22;7778;48.792;9.260;2023-02-15T01:47:39;-0.10;99.90
15357;DHT22;7778;48.792;9.260;2023-02-15T01:50:29;-0.10;99.90
15357;DHT22;7778;48.792;9.260;2023-02-15T01:53:21;-0.10;99.90
15357;DHT22;7778;48.792;9.260;2023-02-15T01:56:13;-0.10;99.90
15357;DHT22;7778;48.792;9.260;2023-02-15T01:59:06;-0.10;99.90
15357;DHT22;7778;48.792;9.260;2023-02-15T02:01:57;-0.10;99.90
15357;DHT22;7778;48.792;9.260;2023-02-15T02:04:47;-0.20;99.90
15357;DHT22;7778;48.792;9.260;2023-02-15T02:07:37;-0.20;99.90
15357;DHT22;7778;48.792;9.260;2023-02-15T02:10:24;-0.20;99.90
15357;DHT22;7778;48.792;9.260;2023-02-15T02:13:10;-0.20;99.90
15357;DHT22;7778;48.792;9.260;2023-02-15T02:16:01;-0.20;99.90
15357;DHT22;7778;48.792;9.260;2023-02-15T02:19:04;-0.20;99.90
15357;DHT22;7778;48.792;9.260;2023-02-15T02:26:29;-0.20;99.90
15357;DHT22;7778;48.792;9.260;2023-02-15T02:29:59;-0.20;99.90
15357;DHT22;7778;48.792;9.260;2023-02-15T02:33:10;-0.30;99.90
15357;DHT22;7778;48.792;9.260;2023-02-15T02:36:17;-0.30;99.90
15357;DHT22;7778;48.792;9.260;2023-02-15T02:39:15;-0.20;99.90
15357;DHT22;7778;48.792;9.260;2023-02-15T02:42:12;-0.30;99.90
15357;DHT22;7778;48.792;9.260;2023-02-15T02:45:04;-0.40;99.90
15357;DHT22;7778;48.792;9.260;2023-02-15T02:47:56;-0.30;99.90
15357;DHT22;7778;48.792;9.260;2023-02-15T02:50:46;-0.40;99.90
15357;DHT22;7778;48.792;9.260;2023-02-15T02:53:33;-0.40;99.90
15357;DHT22;7778;48.792;9.260;2023-02-15T02:56:24;-0.40;99.90
15357;DHT22;7778;48.792;9.260;2023-02-15T02:59:16;-0.60;99.90
15357;DHT22;7778;48.792;9.260;2023-02-15T03:02:07;-0.50;99.90
15357;DHT22;7778;48.792;9.260;2023-02-15T03:05:01;-0.50;99.90
15357;DHT22;7778;48.792;9.260;2023-02-15T03:07:50;-0.40;99.90
15357;DHT22;7778;48.792;9.260;2023-02-15T03:10:39;-0.40;99.90
15357;DHT22;7778;48.792;9.260;2023-02-15T03:13:26;-0.40;99.90
15357;DHT22;7778;48.792;9.260;2023-02-15T03:16:13;-0.40;99.90
15357;DHT22;7778;48.792;9.260;2023-02-15T03:19:13;-0.50;99.90
15357;DHT22;7778;48.792;9.260;2023-02-15T03:22:05;-0.50;99.90
15357;DHT22;7778;48.792;9.260;2023-02-15T03:24:56;-0.50;99.90
15357;DHT22;7778;48.792;9.260;2023-02-15T03:27:46;-0.50;99.90
15357;DHT22;7778;48.792;9.260;2023-02-15T03:30:35;-0.50;99.90
15357;DHT22;7778;48.792;9.260;2023-02-15T03:33:21;-0.50;99.90
15357;DHT22;7778;48.792;9.260;2023-02-15T03:36:13;-0.50;99.90
15357;DHT22;7778;48.792;9.260;2023-02-15T03:39:10;-0.50;99.90
15357;DHT22;7778;48.792;9.260;2023-02-15T03:42:05;-0.50;99.90
15357;DHT22;7778;48.792;9.260;2023-02-15T03:44:56;-0.50;99.90
15357;DHT22;7778;48.792;9.260;2023-02-15T03:47:47;-0.60;99.90
15357;DHT22;7778;48.792;9.260;2023-02-15T03:50:37;-0.70;99.90
15357;DHT22;7778;48.792;9.260;2023-02-15T03:53:42;-0.60;99.90
15357;DHT22;7778;48.792;9.260;2023-02-15T03:56:30;-0.70;99.90
15357;DHT22;7778;48.792;9.260;2023-02-15T03:59:18;-0.70;99.90
15357;DHT22;7778;48.792;9.260;2023-02-15T04:02:24;-0.70;99.90
15357;DHT22;7778;48.792;9.260;2023-02-15T04:05:15;-0.70;99.90
15357;DHT22;7778;48.792;9.260;2023-02-15T04:08:01;-0.80;99.90
15357;DHT22;7778;48.792;9.260;2023-02-15T04:10:47;-0.80;99.90
15357;DHT22;7778;48.792;9.260;2023-02-15T04:13:41;-0.80;99.90
15357;DHT22;7778;48.792;9.260;2023-02-15T04:16:28;-0.80;99.90
15357;DHT22;7778;48.792;9.260;2023-02-15T04:19:12;-0.90;99.90
15357;DHT22;7778;48.792;9.260;2023-02-15T04:22:16;-0.90;99.90
15357;DHT22;7778;48.792;9.260;2023-02-15T04:25:20;-0.90;99.90
15357;DHT22;7778;48.792;9.260;2023-02-15T04:28:06;-1.00;99.90
15357;DHT22;7778;48.792;9.260;2023-02-15T04:30:53;-1.00;99.90
15357;DHT22;7778;48.792;9.260;2023-02-15T04:33:39;-1.00;99.90
15357;DHT22;7778;48.792;9.260;2023-02-15T04:36:24;-1.00;99.90
15357;DHT22;7778;48.792;9.260;2023-02-15T04:39:13;-1.10;99.90
15357;DHT22;7778;48.792;9.260;2023-02-15T04:42:00;-1.00;99.90
15357;DHT22;7778;48.792;9.260;2023-02-15T04:44:46;-1.10;99.90
15357;DHT22;7778;48.792;9.260;2023-02-15T04:47:33;-1.10;99.90
15357;DHT22;7778;48.792;9.260;2023-02-15T04:50:18;-1.10;99.90
15357;DHT22;7778;48.792;9.260;2023-02-15T04:53:04;-1.10;99.90
15357;DHT22;7778;48.792;9.260;2023-02-15T04:55:49;-1.10;99.90
15357;DHT22;7778;48.792;9.260;2023-02-15T04:58:35;-1.10;99.90
15357;DHT22;7778;48.792;9.260;2023-02-15T05:01:21;-1.20;99.90
15357;DHT22;7778;48.792;9.260;2023-02-15T05:04:08;-1.20;99.90
15357;DHT22;7778;48.792;9.260;2023-02-15T05:06:54;-1.10;99.90
15357;DHT22;7778;48.792;9.260;2023-02-15T05:09:39;-1.00;99.90
15357;DHT22;7778;48.792;9.260;2023-02-15T05:12:25;-1.00;99.90
15357;DHT22;7778;48.792;9.260;2023-02-15T05:15:10;-1.10;99.90
15357;DHT22;7778;48.792;9.260;2023-02-15T05:17:56;-1.10;99.90
15357;DHT22;7778;48.792;9.260;2023-02-15T05:20:43;-1.20;99.90
15357;DHT22;7778;48.792;9.260;2023-02-15T05:23:29;-1.10;99.90
15357;DHT22;7778;48.792;9.260;2023-02-15T05:26:17;-1.20;99.90
15357;DHT22;7778;48.792;9.260;2023-02-15T05:29:23;-1.30;99.90
15357;DHT22;7778;48.792;9.260;2023-02-15T05:32:08;-1.50;99.90
15357;DHT22;7778;48.792;9.260;2023-02-15T05:34:54;-1.40;99.90
15357;DHT22;7778;48.792;9.260;2023-02-15T05:37:41;-1.50;99.90
15357;DHT22;7778;48.792;9.260;2023-02-15T05:40:27;-1.60;99.90
15357;DHT22;7778;48.792;9.260;2023-02-15T05:43:12;-1.70;99.90
15357;DHT22;7778;48.792;9.260;2023-02-15T05:45:58;-2.00;99.90
15357;DHT22;7778;48.792;9.260;2023-02-15T05:48:44;-2.00;99.90
15357;DHT22;7778;48.792;9.260;2023-02-15T05:51:30;-1.80;99.90
15357;DHT22;7778;48.792;9.260;2023-02-15T05:54:16;-1.70;99.90
15357;DHT22;7778;48.792;9.260;2023-02-15T05:57:02;-1.60;99.90
15357;DHT22;7778;48.792;9.260;2023-02-15T05:59:48;-1.50;99.90
15357;DHT22;7778;48.792;9.260;2023-02-15T06:02:33;-1.50;99.90
15357;DHT22;7778;48.792;9.260;2023-02-15T06:05:19;-1.50;99.90
15357;DHT22;7778;48.792;9.260;2023-02-15T06:08:04;-1.60;99.90
15357;DHT22;7778;48.792;9.260;2023-02-15T06:10:51;-1.60;99.90
15357;DHT22;7778;48.792;9.260;2023-02-15T06:13:37;-1.40;99.90
15357;DHT22;7778;48.792;9.260;2023-02-15T06:16:22;-1.40;99.90
15357;DHT22;7778;48.792;9.260;2023-02-15T06:19:08;-1.40;99.90
15357;DHT22;7778;48.792;9.260;2023-02-15T06:21:54;-1.30;99.90
15357;DHT22;7778;48.792;9.260;2023-02-15T06:24:39;-1.30;99.90
15357;DHT22;7778;48.792;9.260;2023-02-15T06:27:28;-1.30;99.90
15357;DHT22;7778;48.792;9.260;2023-02-15T06:30:13;-1.30;99.90
15357;DHT22;7778;48.792;9.260;2023-02-15T06:32:59;-1.30;99.90
15357;DHT22;7778;48.792;9.260;2023-02-15T06:35:45;-1.30;99.90
15357;DHT22;7778;48.792;9.260;2023-02-15T06:38:31;-1.30;99.90
15357;DHT22;7778;48.792;9.260;2023-02-15T06:41:17;-1.30;99.90
15357;DHT22;7778;48.792;9.260;2023-02-15T06:44:04;-1.30;99.90
15357;DHT22;7778;48.792;9.260;2023-02-15T06:46:50;-1.30;99.90
15357;DHT22;7778;48.792;9.260;2023-02-15T06:49:35;-1.40;99.90
15357;DHT22;7778;48.792;9.260;2023-02-15T06:52:21;-1.40;99.90
15357;DHT22;7778;48.792;9.260;2023-02-15T06:55:07;-1.40;99.90
15357;DHT22;7778;48.792;9.260;2023-02-15T06:57:52;-1.40;99.90
15357;DHT22;7778;48.792;9.260;2023-02-15T07:00:39;-1.40;99.90
15357;DHT22;7778;48.792;9.260;2023-02-15T07:03:25;-1.40;99.90
15357;DHT22;7778;48.792;9.260;2023-02-15T07:06:11;-1.30;99.90
15357;DHT22;7778;48.792;9.260;2023-02-15T07:08:57;-1.30;99.90
15357;DHT22;7778;48.792;9.260;2023-02-15T07:11:42;-1.30;99.90
15357;DHT22;7778;48.792;9.260;2023-02-15T07:14:45;-1.30;99.90
15357;DHT22;7778;48.792;9.260;2023-02-15T07:17:32;-1.30;99.90
15357;DHT22;7778;48.792;9.260;2023-02-15T07:20:20;-1.20;99.90
15357;DHT22;7778;48.792;9.260;2023-02-15T07:23:07;-1.20;99.90
15357;DHT22;7778;48.792;9.260;2023-02-15T07:25:56;-1.10;99.90
15357;DHT22;7778;48.792;9.260;2023-02-15T07:28:42;-1.10;99.90
15357;DHT22;7778;48.792;9.260;2023-02-15T07:31:28;-1.20;99.90
15357;DHT22;7778;48.792;9.260;2023-02-15T07:34:16;-1.10;99.90
15357;DHT22;7778;48.792;9.260;2023-02-15T07:37:02;-1.10;99.90
15357;DHT22;7778;48.792;9.260;2023-02-15T07:39:48;-1.00;99.90
15357;DHT22;7778;48.792;9.260;2023-02-15T07:42:33;-0.90;99.90
15357;DHT22;7778;48.792;9.260;2023-02-15T07:45:19;-0.90;99.90
15357;DHT22;7778;48.792;9.260;2023-02-15T07:48:05;-0.80;99.90
15357;DHT22;7778;48.792;9.260;2023-02-15T07:50:53;-0.70;99.90
15357;DHT22;7778;48.792;9.260;2023-02-15T07:53:39;-0.60;99.90
15357;DHT22;7778;48.792;9.260;2023-02-15T07:56:25;-0.60;99.90
15357;DHT22;7778;48.792;9.260;2023-02-15T07:59:10;-0.50;99.90
15357;DHT22;7778;48.792;9.260;2023-02-15T08:01:56;-0.50;99.90
15357;DHT22;7778;48.792;9.260;2023-02-15T08:04:42;-0.30;99.90
15357;DHT22;7778;48.792;9.260;2023-02-15T08:07:29;-0.30;99.90
15357;DHT22;7778;48.792;9.260;2023-02-15T08:10:15;-0.20;99.90
15357;DHT22;7778;48.792;9.260;2023-02-15T08:13:20;-0.20;99.90
15357;DHT22;7778;48.792;9.260;2023-02-15T08:16:06;-0.10;99.90
15357;DHT22;7778;48.792;9.260;2023-02-15T08:18:52;-0.10;99.90
15357;DHT22;7778;48.792;9.260;2023-02-15T08:21:39;-0.10;99.90
15357;DHT22;7778;48.792;9.260;2023-02-15T08:24:28;-0.20;99.90
15357;DHT22;7778;48.792;9.260;2023-02-15T08:27:15;0.00;99.90
15357;DHT22;7778;48.792;9.260;2023-02-15T08:30:00;0.20;99.90
15357;DHT22;7778;48.792;9.260;2023-02-15T08:32:46;0.40;99.90
15357;DHT22;7778;48.792;9.260;2023-02-15T08:35:31;0.60;99.90
15357;DHT22;7778;48.792;9.260;2023-02-15T08:38:17;0.60;99.90
15357;DHT22;7778;48.792;9.260;2023-02-15T08:41:12;0.90;99.90
15357;DHT22;7778;48.792;9.260;2023-02-15T08:44:00;1.20;99.90
15357;DHT22;7778;48.792;9.260;2023-02-15T08:46:48;0.90;99.90
15357;DHT22;7778;48.792;9.260;2023-02-15T08:49:34;1.10;99.90
15357;DHT22;7778;48.792;9.260;2023-02-15T08:52:20;1.20;99.90
15357;DHT22;7778;48.792;9.260;2023-02-15T08:55:06;1.10;99.90
15357;DHT22;7778;48.792;9.260;2023-02-15T08:57:53;0.90;99.90
15357;DHT22;7778;48.792;9.260;2023-02-15T09:00:39;1.20;99.90
15357;DHT22;7778;48.792;9.260;2023-02-15T09:03:25;1.50;99.90
15357;DHT22;7778;48.792;9.260;2023-02-15T09:06:12;1.90;99.90
15357;DHT22;7778;48.792;9.260;2023-02-15T09:08:57;2.20;99.90
15357;DHT22;7778;48.792;9.260;2023-02-15T09:11:46;2.60;99.90
15357;DHT22;7778;48.792;9.260;2023-02-15T09:14:34;2.60;99.90
15357;DHT22;7778;48.792;9.260;2023-02-15T09:17:20;2.50;99.90
15357;DHT22;7778;48.792;9.260;2023-02-15T09:20:06;2.90;99.90
15357;DHT22;7778;48.792;9.260;2023-02-15T09:22:53;3.50;99.90
15357;DHT22;7778;48.792;9.260;2023-02-15T09:25:38;4.00;99.90
15357;DHT22;7778;48.792;9.260;2023-02-15T09:28:24;4.60;99.90
15357;DHT22;7778;48.792;9.260;2023-02-15T09:31:12;5.00;99.90
15357;DHT22;7778;48.792;9.260;2023-02-15T09:34:00;5.20;99.90
15357;DHT22;7778;48.792;9.260;2023-02-15T09:36:46;4.90;99.90
15357;DHT22;7778;48.792;9.260;2023-02-15T09:39:32;4.70;99.90
15357;DHT22;7778;48.792;9.260;2023-02-15T09:42:34;5.40;99.90
15357;DHT22;7778;48.792;9.260;2023-02-15T09:45:46;6.90;99.90
15357;DHT22;7778;48.792;9.260;2023-02-15T09:48:42;7.70;99.90
15357;DHT22;7778;48.792;9.260;2023-02-15T09:51:45;8.40;99.90
15357;DHT22;7778;48.792;9.260;2023-02-15T09:54:55;9.20;99.90
15357;DHT22;7778;48.792;9.260;2023-02-15T09:57:54;10.20;99.90
15357;DHT22;7778;48.792;9.260;2023-02-15T10:00:49;10.80;99.90
15357;DHT22;7778;48.792;9.260;2023-02-15T10:03:54;11.40;99.90
15357;DHT22;7778;48.792;9.260;2023-02-15T10:06:54;11.50;99.90
15357;DHT22;7778;48.792;9.260;2023-02-15T10:10:01;11.80;99.90
15357;DHT22;7778;48.792;9.260;2023-02-15T10:13:00;12.10;99.90
15357;DHT22;7778;48.792;9.260;2023-02-15T10:16:06;12.30;99.90
15357;DHT22;7778;48.792;9.260;2023-02-15T10:19:05;12.20;99.90
15357;DHT22;7778;48.792;9.260;2023-02-15T10:22:01;12.40;99.90
15357;DHT22;7778;48.792;9.260;2023-02-15T10:25:14;13.00;99.90
15357;DHT22;7778;48.792;9.260;2023-02-15T10:28:06;12.20;99.90
15357;DHT22;7778;48.792;9.260;2023-02-15T10:30:59;12.00;99.90
15357;DHT22;7778;48.792;9.260;2023-02-15T10:34:08;12.40;99.90
15357;DHT22;7778;48.792;9.260;2023-02-15T10:37:17;12.80;99.90
15357;DHT22;7778;48.792;9.260;2023-02-15T10:40:18;13.60;99.90
15357;DHT22;7778;48.792;9.260;2023-02-15T10:43:22;14.10;99.90
15357;DHT22;7778;48.792;9.260;2023-02-15T10:46:23;14.70;99.90
15357;DHT22;7778;48.792;9.260;2023-02-15T10:49:36;14.20;99.90
15357;DHT22;7778;48.792;9.260;2023-02-15T10:52:38;14.60;99.90
15357;DHT22;7778;48.792;9.260;2023-02-15T10:55:44;15.10;99.90
15357;DHT22;7778;48.792;9.260;2023-02-15T10:58:47;13.80;99.90
15357;DHT22;7778;48.792;9.260;2023-02-15T11:01:43;14.10;99.90
15357;DHT22;7778;48.792;9.260;2023-02-15T11:04:45;14.40;99.90
15357;DHT22;7778;48.792;9.260;2023-02-15T11:07:38;14.90;99.90
15357;DHT22;7778;48.792;9.260;2023-02-15T11:10:30;15.00;99.90
15357;DHT22;7778;48.792;9.260;2023-02-15T11:13:23;14.90;99.90
15357;DHT22;7778;48.792;9.260;2023-02-15T11:16:14;15.00;99.90
15357;DHT22;7778;48.792;9.260;2023-02-15T11:19:06;15.40;99.90
15357;DHT22;7778;48.792;9.260;2023-02-15T11:21:59;15.80;99.90
15357;DHT22;7778;48.792;9.260;2023-02-15T11:24:46;15.80;99.90
15357;DHT22;7778;48.792;9.260;2023-02-15T11:27:32;16.00;99.90
15357;DHT22;7778;48.792;9.260;2023-02-15T11:30:22;15.40;99.90
15357;DHT22;7778;48.792;9.260;2023-02-15T11:33:15;15.10;99.90
15357;DHT22;7778;48.792;9.260;2023-02-15T11:36:09;15.60;99.90
15357;DHT22;7778;48.792;9.260;2023-02-15T11:39:03;15.80;99.90
15357;DHT22;7778;48.792;9.260;2023-02-15T11:41:57;15.30;99.90
15357;DHT22;7778;48.792;9.260;2023-02-15T11:44:48;14.90;99.90
15357;DHT22;7778;48.792;9.260;2023-02-15T11:47:39;15.20;99.90
15357;DHT22;7778;48.792;9.260;2023-02-15T11:50:28;15.40;99.90
15357;DHT22;7778;48.792;9.260;2023-02-15T11:53:18;15.40;99.90
15357;DHT22;7778;48.792;9.260;2023-02-15T11:56:17;15.10;99.90
15357;DHT22;7778;48.792;9.260;2023-02-15T11:59:11;15.00;99.90
15357;DHT22;7778;48.792;9.260;2023-02-15T12:02:00;14.60;99.90
15357;DHT22;7778;48.792;9.260;2023-02-15T12:04:49;13.50;99.90
15357;DHT22;7778;48.792;9.260;2023-02-15T12:07:42;12.90;99.90
15357;DHT22;7778;48.792;9.260;2023-02-15T12:10:34;12.00;99.90
15357;DHT22;7778;48.792;9.260;2023-02-15T12:13:26;11.10;99.90
15357;DHT22;7778;48.792;9.260;2023-02-15T12:16:12;10.70;99.90
15357;DHT22;7778;48.792;9.260;2023-02-15T12:19:00;10.30;99.90
15357;DHT22;7778;48.792;9.260;2023-02-15T12:21:50;10.00;99.90
15357;DHT22;7778;48.792;9.260;2023-02-15T12:24:38;9.90;99.90
15357;DHT22;7778;48.792;9.260;2023-02-15T12:27:30;10.00;99.90
15357;DHT22;7778;48.792;9.260;2023-02-15T12:30:23;10.00;99.90
15357;DHT22;7778;48.792;9.260;2023-02-15T12:33:18;9.90;99.90
15357;DHT22;7778;48.792;9.260;2023-02-15T12:36:15;9.90;99.90
15357;DHT22;7778;48.792;9.260;2023-02-15T12:39:14;10.00;99.90
15357;DHT22;7778;48.792;9.260;2023-02-15T12:42:08;9.80;99.90
15357;DHT22;7778;48.792;9.260;2023-02-15T12:45:01;9.60;99.90
15357;DHT22;7778;48.792;9.260;2023-02-15T12:48:08;9.50;99.90
15357;DHT22;7778;48.792;9.260;2023-02-15T12:51:07;9.50;99.90
15357;DHT22;7778;48.792;9.260;2023-02-15T12:53:54;9.50;99.90
15357;DHT22;7778;48.792;9.260;2023-02-15T12:56:39;9.30;99.90
15357;DHT22;7778;48.792;9.260;2023-02-15T12:59:25;9.40;99.90
15357;DHT22;7778;48.792;9.260;2023-02-15T13:02:19;9.70;99.90
15357;DHT22;7778;48.792;9.260;2023-02-15T13:05:17;9.70;99.90
15357;DHT22;7778;48.792;9.260;2023-02-15T13:08:10;9.70;99.90
15357;DHT22;7778;48.792;9.260;2023-02-15T13:11:00;9.80;99.90
15357;DHT22;7778;48.792;9.260;2023-02-15T13:13:51;9.70;99.90
15357;DHT22;7778;48.792;9.260;2023-02-15T13:16:39;9.60;99.90
15357;DHT22;7778;48.792;9.260;2023-02-15T13:19:31;9.60;99.90
15357;DHT22;7778;48.792;9.260;2023-02-15T13:22:27;9.60;99.90
15357;DHT22;7778;48.792;9.260;2023-02-15T13:25:20;9.80;99.90
15357;DHT22;7778;48.792;9.260;2023-02-15T13:28:13;9.70;99.90
15357;DHT22;7778;48.792;9.260;2023-02-15T13:30:59;9.70;99.90
15357;DHT22;7778;48.792;9.260;2023-02-15T13:33:48;9.70;99.90
15357;DHT22;7778;48.792;9.260;2023-02-15T13:36:41;9.80;99.90
15357;DHT22;7778;48.792;9.260;2023-02-15T13:39:40;9.70;99.90
15357;DHT22;7778;48.792;9.260;2023-02-15T13:42:33;9.70;99.90
15357;DHT22;7778;48.792;9.260;2023-02-15T13:45:33;9.70;99.90
15357;DHT22;7778;48.792;9.260;2023-02-15T13:48:32;9.70;99.90
15357;DHT22;7778;48.792;9.260;2023-02-15T13:51:29;9.70;99.90
15357;DHT22;7778;48.792;9.260;2023-02-15T13:54:33;9.60;99.90
15357;DHT22;7778;48.792;9.260;2023-02-15T13:57:43;9.60;99.90
15357;DHT22;7778;48.792;9.260;2023-02-15T14:00:46;9.70;99.90
15357;DHT22;7778;48.792;9.260;2023-02-15T14:03:56;9.80;99.90
15357;DHT22;7778;48.792;9.260;2023-02-15T14:07:07;9.70;99.90
15357;DHT22;7778;48.792;9.260;2023-02-15T14:10:37;9.60;99.90
15357;DHT22;7778;48.792;9.260;2023-02-15T14:14:02;9.80;99.90
15357;DHT22;7778;48.792;9.260;2023-02-15T14:17:01;9.90;99.90
15357;DHT22;7778;48.792;9.260;2023-02-15T14:19:54;9.90;99.90
15357;DHT22;7778;48.792;9.260;2023-02-15T14:22:46;10.20;99.90
15357;DHT22;7778;48.792;9.260;2023-02-15T14:25:40;10.00;99.90
15357;DHT22;7778;48.792;9.260;2023-02-15T14:28:33;9.90;99.90
15357;DHT22;7778;48.792;9.260;2023-02-15T14:31:29;9.90;99.90
15357;DHT22;7778;48.792;9.260;2023-02-15T14:34:21;10.00;99.90
15357;DHT22;7778;48.792;9.260;2023-02-15T14:37:11;10.00;99.90
15357;DHT22;7778;48.792;9.260;2023-02-15T14:40:02;9.90;99.90
15357;DHT22;7778;48.792;9.260;2023-02-15T14:43:14;9.90;99.90
15357;DHT22;7778;48.792;9.260;2023-02-15T14:46:09;9.80;99.90
15357;DHT22;7778;48.792;9.260;2023-02-15T14:49:08;9.80;99.90
15357;DHT22;7778;48.792;9.260;2023-02-15T14:51:57;9.90;99.90
15357;DHT22;7778;48.792;9.260;2023-02-15T14:55:08;9.90;99.90
15357;DHT22;7778;48.792;9.260;2023-02-15T14:57:56;9.70;99.90
15357;DHT22;7778;48.792;9.260;2023-02-15T15:00:44;9.70;99.90
15357;DHT22;7778;48.792;9.260;2023-02-15T15:03:30;9.60;99.90
15357;DHT22;7778;48.792;9.260;2023-02-15T15:06:25;9.70;99.90
15357;DHT22;7778;48.792;9.260;2023-02-15T15:09:14;9.70;99.90
15357;DHT22;7778;48.792;9.260;2023-02-15T15:12:37;9.50;99.90
15357;DHT22;7778;48.792;9.260;2023-02-15T15:15:38;9.50;99.90
15357;DHT22;7778;48.792;9.260;2023-02-15T15:18:45;9.50;99.90
15357;DHT22;7778;48.792;9.260;2023-02-15T15:21:53;9.50;99.90
15357;DHT22;7778;48.792;9.260;2023-02-15T15:24:51;9.50;99.90
15357;DHT22;7778;48.792;9.260;2023-02-15T15:27:49;9.50;99.90
15357;DHT22;7778;48.792;9.260;2023-02-15T15:31:00;9.70;99.90
15357;DHT22;7778;48.792;9.260;2023-02-15T15:34:18;9.70;99.90
15357;DHT22;7778;48.792;9.260;2023-02-15T15:48:06;9.30;99.90
15357;DHT22;7778;48.792;9.260;2023-02-15T15:51:18;9.20;99.90
15357;DHT22;7778;48.792;9.260;2023-02-15T15:54:05;9.10;99.90
15357;DHT22;7778;48.792;9.260;2023-02-15T15:56:53;9.10;99.90
15357;DHT22;7778;48.792;9.260;2023-02-15T15:59:44;9.00;99.90
15357;DHT22;7778;48.792;9.260;2023-02-15T16:02:30;9.00;99.90
15357;DHT22;7778;48.792;9.260;2023-02-15T16:05:17;8.90;99.90
15357;DHT22;7778;48.792;9.260;2023-02-15T16:08:03;8.90;99.90
15357;DHT22;7778;48.792;9.260;2023-02-15T16:10:49;9.10;99.90
15357;DHT22;7778;48.792;9.260;2023-02-15T16:13:35;9.00;99.90
15357;DHT22;7778;48.792;9.260;2023-02-15T16:16:22;8.90;99.90
15357;DHT22;7778;48.792;9.260;2023-02-15T16:19:18;8.70;99.90
15357;DHT22;7778;48.792;9.260;2023-02-15T16:22:11;8.50;99.90
15357;DHT22;7778;48.792;9.260;2023-02-15T16:25:16;8.40;99.90
15357;DHT22;7778;48.792;9.260;2023-02-15T16:28:07;8.30;99.90
15357;DHT22;7778;48.792;9.260;2023-02-15T16:31:05;8.10;99.90
15357;DHT22;7778;48.792;9.260;2023-02-15T16:33:53;8.00;99.90
15357;DHT22;7778;48.792;9.260;2023-02-15T16:36:39;7.80;99.90
15357;DHT22;7778;48.792;9.260;2023-02-15T16:39:26;7.70;99.90
15357;DHT22;7778;48.792;9.260;2023-02-15T16:42:14;7.60;99.90
15357;DHT22;7778;48.792;9.260;2023-02-15T16:45:05;7.50;99.90
15357;DHT22;7778;48.792;9.260;2023-02-15T16:47:56;7.40;99.90
15357;DHT22;7778;48.792;9.260;2023-02-15T16:50:47;7.30;99.90
15357;DHT22;7778;48.792;9.260;2023-02-15T16:53:36;7.40;99.90
15357;DHT22;7778;48.792;9.260;2023-02-15T16:56:25;7.20;99.90
15357;DHT22;7778;48.792;9.260;2023-02-15T16:59:20;7.10;99.90
15357;DHT22;7778;48.792;9.260;2023-02-15T17:02:16;7.10;99.90
15357;DHT22;7778;48.792;9.260;2023-02-15T17:05:16;6.90;99.90
15357;DHT22;7778;48.792;9.260;2023-02-15T17:08:14;6.90;99.90
15357;DHT22;7778;48.792;9.260;2023-02-15T17:11:11;6.80;99.90
15357;DHT22;7778;48.792;9.260;2023-02-15T17:14:18;6.70;99.90
15357;DHT22;7778;48.792;9.260;2023-02-15T17:17:07;6.60;99.90
15357;DHT22;7778;48.792;9.260;2023-02-15T17:19:55;6.50;99.90
15357;DHT22;7778;48.792;9.260;2023-02-15T17:22:41;6.40;99.90
15357;DHT22;7778;48.792;9.260;2023-02-15T17:25:34;6.40;99.90
15357;DHT22;7778;48.792;9.260;2023-02-15T17:28:25;6.30;99.90
15357;DHT22;7778;48.792;9.260;2023-02-15T17:31:15;6.20;99.90
15357;DHT22;7778;48.792;9.260;2023-02-15T17:34:02;6.20;99.90
15357;DHT22;7778;48.792;9.260;2023-02-15T17:36:57;6.10;99.90
15357;DHT22;7778;48.792;9.260;2023-02-15T17:39:43;6.00;99.90
15357;DHT22;7778;48.792;9.260;2023-02-15T17:42:28;6.00;99.90
15357;DHT22;7778;48.792;9.260;2023-02-15T17:45:14;5.90;99.90
15357;DHT22;7778;48.792;9.260;2023-02-15T17:48:04;5.80;99.90
15357;DHT22;7778;48.792;9.260;2023-02-15T17:50:50;5.70;99.90
15357;DHT22;7778;48.792;9.260;2023-02-15T17:53:36;5.70;99.90
15357;DHT22;7778;48.792;9.260;2023-02-15T17:56:22;5.60;99.90
15357;DHT22;7778;48.792;9.260;2023-02-15T17:59:07;5.60;99.90
15357;DHT22;7778;48.792;9.260;2023-02-15T18:01:54;5.60;99.90
15357;DHT22;7778;48.792;9.260;2023-02-15T18:04:59;5.50;99.90
15357;DHT22;7778;48.792;9.260;2023-02-15T18:08:03;5.40;99.90
15357;DHT22;7778;48.792;9.260;2023-02-15T18:11:09;5.40;99.90
15357;DHT22;7778;48.792;9.260;2023-02-15T18:14:13;5.30;99.90
15357;DHT22;7778;48.792;9.260;2023-02-15T18:16:59;5.10;99.90
15357;DHT22;7778;48.792;9.260;2023-02-15T18:19:45;5.10;99.90
15357;DHT22;7778;48.792;9.260;2023-02-15T18:22:33;5.10;99.90
15357;DHT22;7778;48.792;9.260;2023-02-15T18:25:21;5.10;99.90
15357;DHT22;7778;48.792;9.260;2023-02-15T18:28:08;5.30;99.90
15357;DHT22;7778;48.792;9.260;2023-02-15T18:30:55;5.10;99.90
15357;DHT22;7778;48.792;9.260;2023-02-15T18:33:43;5.10;99.90
15357;DHT22;7778;48.792;9.260;2023-02-15T18:36:39;5.10;99.90
15357;DHT22;7778;48.792;9.260;2023-02-15T18:39:35;5.00;99.90
15357;DHT22;7778;48.792;9.260;2023-02-15T18:42:24;4.90;99.90
15357;DHT22;7778;48.792;9.260;2023-02-15T18:45:15;4.90;99.90
15357;DHT22;7778;48.792;9.260;2023-02-15T18:48:03;4.90;99.90